Time;durP1;ratioP1;P1;durP2;ratioP2;P2;SDS_P1;SDS_P2;PMS_P1;PMS_P2;Temp;Humidity;BMP_temperature;BMP_pressure;BME280_temperature;BME280_humidity;BME280_pressure;Samples;Min_cycle;Max_cycle;Signal;HPM_P1;HPM_P2
2021/03/22 00:02:42;;;;;;;5.40;1.30;;;;;;;2.66;71.62;97625.13;10114666;29;20500;-76
2021/03/22 00:08:03;;;;;;;4.40;1.65;;;;;;;2.70;71.74;97633.75;10114710;29;20460;-76
2021/03/22 00:13:25;;;;;;;4.28;1.58;;;;;;;2.73;71.42;97638.94;10101331;29;20055;-76
2021/03/22 00:18:45;;;;;;;5.07;2.35;;;;;;;2.79;71.26;97639.50;10114718;29;20123;-75
2021/03/22 00:24:06;;;;;;;3.80;1.50;;;;;;;2.82;71.11;97632.91;10101593;29;20096;-76
2021/03/22 00:29:25;;;;;;;4.25;1.88;;;;;;;2.84;71.15;97638.63;10101023;29;20043;-75
2021/03/22 00:34:46;;;;;;;5.80;2.33;;;;;;;2.87;70.64;97637.53;10113658;29;20051;-76
2021/03/22 00:40:07;;;;;;;7.38;2.35;;;;;;;2.84;71.09;97637.88;10126740;29;20495;-77
2021/03/22 00:45:28;;;;;;;4.78;2.20;;;;;;;2.83;70.81;97644.69;10113825;29;20547;-76
2021/03/22 00:50:48;;;;;;;9.25;2.53;;;;;;;2.76;71.01;97642.63;10112705;29;20048;-76
2021/03/22 00:56:09;;;;;;;8.15;2.22;;;;;;;2.72;71.00;97637.47;10099863;29;20072;-76
2021/03/22 01:01:29;;;;;;;8.50;2.20;;;;;;;2.71;71.03;97654.56;10099512;29;20124;-76
2021/03/22 01:06:49;;;;;;;7.30;2.03;;;;;;;2.71;70.50;97651.81;10086542;29;20064;-76
2021/03/22 01:12:09;;;;;;;5.05;1.70;;;;;;;2.59;70.57;97657.59;10112900;29;20127;-76
2021/03/22 01:17:29;;;;;;;6.82;1.75;;;;;;;2.49;70.46;97653.88;10086954;29;20059;-77
2021/03/22 01:22:49;;;;;;;6.93;1.75;;;;;;;2.41;70.15;97658.59;10125054;29;20050;-77
2021/03/22 01:28:13;;;;;;;4.13;1.50;;;;;;;2.42;70.07;97659.34;10111540;29;20051;-76
2021/03/22 01:33:35;;;;;;;5.47;1.40;;;;;;;2.38;69.86;97662.44;10098387;29;20040;-77
2021/03/22 01:38:59;;;;;;;3.63;0.98;;;;;;;2.28;70.07;97658.69;10099183;29;20049;-75
2021/03/22 01:44:35;;;;;;;4.40;1.08;;;;;;;2.21;70.33;97660.13;10111276;29;20100;-77
2021/03/22 01:50:10;;;;;;;6.72;1.65;;;;;;;2.11;70.24;97669.41;10110656;29;20145;-76
2021/03/22 01:55:30;;;;;;;5.57;1.07;;;;;;;1.92;70.04;97661.34;10110787;29;20048;-76
2021/03/22 02:00:50;;;;;;;8.25;1.67;;;;;;;1.75;70.38;97659.03;10071246;29;20044;-76
2021/03/22 02:06:09;;;;;;;6.35;1.50;;;;;;;1.57;70.63;97657.22;10084412;29;20045;-76
2021/03/22 02:11:30;;;;;;;6.03;1.35;;;;;;;1.43;70.66;97649.00;10084246;29;20049;-77
2021/03/22 02:17:15;;;;;;;9.10;1.77;;;;;;;1.32;71.00;97643.03;10071609;29;20041;-76
2021/03/22 02:22:53;;;;;;;10.73;2.05;;;;;;;1.22;71.00;97637.25;10060939;29;20397;-77
2021/03/22 02:28:31;;;;;;;9.50;1.88;;;;;;;1.22;70.82;97642.75;10083857;29;20041;-76
2021/03/22 02:34:10;;;;;;;11.25;2.22;;;;;;;1.13;71.06;97643.94;10084201;29;20045;-75
2021/03/22 02:39:37;;;;;;;7.18;2.10;;;;;;;1.05;71.13;97637.59;10072617;29;20041;-76
2021/03/22 02:44:57;;;;;;;10.15;2.15;;;;;;;0.94;71.23;97631.63;10058996;29;20049;-75
2021/03/22 02:50:20;;;;;;;8.57;2.35;;;;;;;0.88;70.88;97631.00;10083713;29;20053;-76
2021/03/22 02:55:43;;;;;;;9.52;2.47;;;;;;;0.81;71.27;97630.38;10071155;29;20481;-76
2021/03/22 03:01:04;;;;;;;10.68;3.13;;;;;;;0.75;71.17;97626.25;10095913;29;20056;-77
2021/03/22 03:06:54;;;;;;;10.50;2.58;;;;;;;0.71;71.50;97629.34;10121951;29;20049;-77
2021/03/22 03:12:18;;;;;;;11.25;2.63;;;;;;;0.65;71.70;97645.19;10114210;29;20476;-77
2021/03/22 03:17:39;;;;;;;8.25;2.28;;;;;;;0.63;71.60;97653.22;10142135;29;20049;-77
2021/03/22 03:22:59;;;;;;;8.13;2.53;;;;;;;0.59;71.44;97658.31;10116116;29;20476;-77
2021/03/22 03:28:19;;;;;;;12.10;2.60;;;;;;;0.56;71.89;97659.34;10102919;29;20041;-76
2021/03/22 03:33:38;;;;;;;11.38;2.63;;;;;;;0.50;71.68;97667.72;10102574;29;20049;-76
2021/03/22 03:38:58;;;;;;;8.02;2.13;;;;;;;0.46;71.35;97663.78;10115268;29;20052;-76
2021/03/22 03:44:18;;;;;;;9.77;2.40;;;;;;;0.40;71.89;97669.41;10115129;29;20076;-77
2021/03/22 03:49:38;;;;;;;11.15;2.90;;;;;;;0.36;71.97;97665.47;10101850;29;20100;-76
2021/03/22 03:54:57;;;;;;;9.93;2.50;;;;;;;0.32;72.24;97662.31;10114893;29;20044;-76
2021/03/22 04:00:28;;;;;;;9.80;2.17;;;;;;;0.27;72.20;97672.88;10114639;29;20056;-76
2021/03/22 04:05:59;;;;;;;12.18;2.25;;;;;;;0.22;72.19;97676.47;10115215;29;20049;-76
2021/03/22 04:11:24;;;;;;;8.82;2.50;;;;;;;0.19;72.10;97676.75;10129669;29;20414;-77
2021/03/22 04:16:43;;;;;;;8.88;2.58;;;;;;;0.16;72.37;97683.31;10128013;29;20119;-76
2021/03/22 04:22:04;;;;;;;14.18;2.78;;;;;;;0.13;72.08;97698.84;10125568;29;20055;-76
2021/03/22 04:27:24;;;;;;;8.45;2.10;;;;;;;0.16;72.43;97691.56;10126188;29;20052;-77
2021/03/22 04:32:44;;;;;;;10.25;2.22;;;;;;;0.31;71.74;97705.53;10140534;29;20418;-77
2021/03/22 04:38:04;;;;;;;8.90;2.53;;;;;;;0.48;71.84;97705.97;10126915;29;20048;-76
2021/03/22 04:43:23;;;;;;;8.65;2.53;;;;;;;0.57;71.58;97704.78;10127151;29;20051;-77
2021/03/22 04:48:43;;;;;;;10.20;2.63;;;;;;;0.57;71.50;97729.50;10113363;29;20430;-76
2021/03/22 04:54:04;;;;;;;7.75;1.92;;;;;;;0.65;71.26;97718.63;10113341;29;20451;-76
2021/03/22 04:59:23;;;;;;;11.05;2.50;;;;;;;0.72;70.93;97729.00;10113191;29;20064;-76
2021/03/22 05:04:43;;;;;;;9.70;2.15;;;;;;;0.71;70.88;97714.50;10126001;29;20099;-76
2021/03/22 05:10:08;;;;;;;9.95;2.20;;;;;;;0.62;70.84;97711.44;10112578;29;20440;-77
2021/03/22 05:15:27;;;;;;;11.73;2.20;;;;;;;0.67;70.72;97707.84;10098896;29;20047;-75
2021/03/22 05:20:54;;;;;;;11.88;2.28;;;;;;;0.90;70.63;97719.16;10098882;29;20452;-78
2021/03/22 05:26:14;;;;;;;9.68;2.20;;;;;;;1.32;70.47;97709.75;10112355;29;20068;-76
2021/03/22 05:31:34;;;;;;;12.27;2.28;;;;;;;1.80;70.07;97721.44;10124798;29;20075;-78
2021/03/22 05:36:54;;;;;;;7.82;2.65;;;;;;;2.17;69.44;97734.09;10111095;29;20099;-77
2021/03/22 05:42:29;;;;;;;12.10;2.97;;;;;;;2.24;69.46;97738.19;10110955;29;20041;-77
2021/03/22 05:48:18;;;;;;;;;;;;;;;2.36;68.54;97742.13;10124807;29;20049;-76
2021/03/22 05:54:10;;;;;;;7.63;2.38;;;;;;;5.20;70.46;97733.91;10134695;29;20291;-76
2021/03/22 06:00:03;;;;;;;11.50;2.60;;;;;;;9.03;71.19;97734.03;10080955;29;20065;-78
2021/03/22 06:05:56;;;;;;;9.88;2.83;;;;;;;11.59;64.64;97745.91;10092908;29;20075;-77
2021/03/22 06:11:35;;;;;;;10.43;3.70;;;;;;;12.82;58.66;97752.00;10134783;29;20469;-77
2021/03/22 06:17:24;;;;;;;7.63;3.08;;;;;;;15.57;54.93;97754.72;10136288;29;20056;-77
2021/03/22 06:22:44;;;;;;;8.70;3.10;;;;;;;21.17;48.95;97772.84;10097871;29;20116;-78
2021/03/22 06:28:16;;;;;;;10.02;2.90;;;;;;;26.75;40.49;97765.09;10109593;29;20052;-76
2021/03/22 06:33:45;;;;;;;7.05;3.03;;;;;;;30.66;30.48;97775.19;10121760;29;20067;-77
2021/03/22 06:39:08;;;;;;;11.90;3.08;;;;;;;33.42;22.72;97792.91;10093999;29;20053;-79
2021/03/22 06:44:39;;;;;;;8.45;2.78;;;;;;;35.03;16.66;97771.34;10082846;29;20527;-76
2021/03/22 06:50:26;;;;;;;9.20;2.73;;;;;;;36.43;14.39;97795.19;10082706;29;20049;-78
2021/03/22 06:55:46;;;;;;;11.00;3.05;;;;;;;37.83;12.35;97803.03;10110983;29;20360;-78
2021/03/22 07:01:18;;;;;;;9.68;3.35;;;;;;;39.49;10.49;97800.81;10133794;29;20431;-78
2021/03/22 07:06:38;;;;;;;8.13;2.58;;;;;;;40.43;8.97;97807.91;10147251;29;20558;-77
2021/03/22 07:11:58;;;;;;;8.27;2.83;;;;;;;40.54;8.75;97815.34;10133712;29;20055;-77
2021/03/22 07:17:23;;;;;;;9.60;2.90;;;;;;;41.77;7.33;97811.66;10147066;29;20048;-76
2021/03/22 07:22:44;;;;;;;8.40;2.85;;;;;;;39.10;8.43;97822.34;10096559;29;20056;-78
2021/03/22 07:28:15;;;;;;;8.63;3.03;;;;;;;41.07;7.83;97827.19;10056089;29;20389;-77
2021/03/22 07:34:27;;;;;;;9.02;3.03;;;;;;;43.35;6.36;97830.81;10057045;29;20128;-77
2021/03/22 07:40:10;;;;;;;6.80;2.50;;;;;;;43.30;5.49;97824.44;10114212;29;20045;-78
2021/03/22 07:45:49;;;;;;;10.90;3.00;;;;;;;45.19;4.77;97825.09;10109936;29;20045;-77
2021/03/22 07:51:34;;;;;;;7.63;2.85;;;;;;;47.83;4.37;97830.69;10094242;29;20045;-77
2021/03/22 07:57:27;;;;;;;7.43;2.85;;;;;;;45.70;2.98;97815.53;10092755;29;20057;-78
2021/03/22 08:03:02;;;;;;;8.73;3.13;;;;;;;32.75;7.25;97815.22;10093659;29;20045;-77
2021/03/22 08:09:23;;;;;;;9.75;3.47;;;;;;;23.40;11.50;97816.97;10139936;29;20049;-78
2021/03/22 08:14:43;;;;;;;9.43;3.23;;;;;;;18.33;15.10;97816.72;10110753;29;20488;-79
2021/03/22 08:20:27;;;;;;;10.05;3.03;;;;;;;16.80;20.57;97818.91;10061732;29;20109;-78
2021/03/22 08:25:52;;;;;;;9.63;3.60;;;;;;;15.90;19.59;97825.31;10062159;29;20051;-78
2021/03/22 08:31:12;;;;;;;9.00;3.42;;;;;;;18.68;21.57;97832.19;10061356;29;20057;-78
2021/03/22 08:37:03;;;;;;;9.32;3.10;;;;;;;26.65;17.72;97840.19;10074324;29;20124;-78
2021/03/22 08:42:32;;;;;;;7.90;3.22;;;;;;;27.65;12.99;97846.28;10087114;29;20045;-79
2021/03/22 08:48:12;;;;;;;10.40;3.08;;;;;;;31.75;12.98;97847.25;10061549;29;20044;-78
2021/03/22 08:53:39;;;;;;;10.32;2.97;;;;;;;32.29;11.92;97847.84;10086523;29;20060;-80
2021/03/22 08:59:07;;;;;;;9.65;3.13;;;;;;;38.47;8.92;97857.91;10088064;29;20508;-77
2021/03/22 09:04:32;;;;;;;7.00;2.88;;;;;;;37.84;7.47;97856.88;10098519;29;20104;-80
2021/03/22 09:09:52;;;;;;;6.50;2.25;;;;;;;41.74;6.31;97866.75;10111492;29;20586;-79
2021/03/22 09:15:29;;;;;;;7.13;2.42;;;;;;;44.59;4.97;97871.94;10098625;29;20061;-79
2021/03/22 09:20:53;;;;;;;6.55;2.60;;;;;;;43.20;4.58;97857.38;10101292;29;20059;-78
2021/03/22 09:26:13;;;;;;;8.30;2.15;;;;;;;47.43;3.76;97867.91;10137048;29;20053;-78
2021/03/22 09:31:37;;;;;;;;;;;;;;;50.61;2.22;97861.09;10111044;29;20045;-77
2021/03/22 09:36:56;;;;;;;7.68;2.10;;;;;;;52.66;1.88;97861.03;10123704;29;20399;-79
2021/03/22 09:42:24;;;;;;;6.45;2.22;;;;;;;51.62;0.93;97855.88;10097345;29;20061;-79
2021/03/22 09:47:47;;;;;;;6.53;1.65;;;;;;;49.09;2.24;97854.81;10110481;29;20048;-80
2021/03/22 09:53:16;;;;;;;7.75;2.30;;;;;;;48.57;1.34;97852.59;10098238;29;20484;-78
2021/03/22 09:58:39;;;;;;;;;;;;;;;33.80;5.46;97863.63;10147126;29;20063;-78
2021/03/22 10:04:28;;;;;;;8.07;2.60;;;;;;;37.48;6.81;97859.72;10174513;29;19930;-78
2021/03/22 10:10:01;;;;;;;6.88;2.28;;;;;;;35.68;5.50;97861.53;10135433;29;20099;-78
2021/03/22 10:15:30;;;;;;;6.80;2.30;;;;;;;38.89;6.10;97867.00;10099000;29;20051;-81
2021/03/22 10:21:11;;;;;;;6.63;2.25;;;;;;;40.98;3.78;97861.34;10102825;29;20535;-79
2021/03/22 10:26:41;;;;;;;7.75;2.50;;;;;;;35.96;6.62;97865.75;10134363;29;20040;-79
2021/03/22 10:32:08;;;;;;;7.30;1.90;;;;;;;30.36;7.68;97848.91;10122015;29;20044;-79
2021/03/22 10:37:33;;;;;;;5.85;1.80;;;;;;;36.01;6.67;97861.94;10160866;29;20063;-80
2021/03/22 10:42:54;;;;;;;7.93;2.28;;;;;;;31.53;7.21;97851.91;10134215;29;20052;-81
2021/03/22 10:48:31;;;;;;;8.85;2.13;;;;;;;23.69;10.51;97860.94;10121425;29;20080;-78
2021/03/22 10:53:57;;;;;;;8.43;2.40;;;;;;;21.57;12.57;97852.69;10146934;29;20051;-76
2021/03/22 10:59:40;;;;;;;7.68;1.80;;;;;;;23.03;14.34;97844.00;10134105;29;20411;-78
2021/03/22 11:05:11;;;;;;;8.43;2.35;;;;;;;21.95;13.77;97852.94;10146895;29;20111;-79
2021/03/22 11:10:33;;;;;;;5.25;1.60;;;;;;;21.60;15.40;97846.41;10134901;29;20407;-77
2021/03/22 11:15:53;;;;;;;6.20;1.40;;;;;;;20.55;14.64;97849.81;10109331;29;20080;-79
2021/03/22 11:21:19;;;;;;;7.65;1.52;;;;;;;19.42;16.81;97850.41;10119962;29;20104;-78
2021/03/22 11:26:39;;;;;;;6.55;1.42;;;;;;;20.05;16.15;97841.19;10085959;29;20037;-79
2021/03/22 11:31:59;;;;;;;8.27;1.60;;;;;;;18.23;16.55;97845.31;10093293;29;20048;-79
2021/03/22 11:37:28;;;;;;;8.15;1.70;;;;;;;18.70;17.46;97854.88;10125578;29;20048;-78
2021/03/22 11:43:20;;;;;;;9.02;1.80;;;;;;;18.82;17.68;97839.13;10113503;29;20056;-78
2021/03/22 11:48:40;;;;;;;7.30;1.52;;;;;;;18.53;17.29;97833.75;10114579;29;20045;-79
2021/03/22 11:54:12;;;;;;;4.50;1.10;;;;;;;17.42;17.98;97844.81;10086746;29;20045;-78
2021/03/22 11:59:32;;;;;;;5.75;1.10;;;;;;;16.84;18.46;97824.72;10088734;29;20096;-79
2021/03/22 12:05:39;;;;;;;8.05;1.80;;;;;;;17.16;18.63;97827.50;10100732;29;20445;-79
2021/03/22 12:11:13;;;;;;;7.28;1.60;;;;;;;15.69;19.02;97840.47;10045514;29;20057;-78
2021/03/22 12:16:34;;;;;;;;;;;;;;;16.00;19.81;97833.50;10033549;29;20065;-79
2021/03/22 12:21:54;;;;;;;4.28;1.27;;;;;;;16.51;19.45;97833.78;10056727;29;20028;-79
2021/03/22 12:27:15;;;;;;;5.53;1.40;;;;;;;16.08;19.26;97817.00;10068256;29;20053;-79
2021/03/22 12:32:35;;;;;;;5.25;1.00;;;;;;;16.40;19.88;97831.13;10055136;29;20069;-78
2021/03/22 12:37:56;;;;;;;6.57;1.50;;;;;;;15.63;19.66;97836.63;10047874;29;20052;-78
2021/03/22 12:43:33;;;;;;;5.45;1.50;;;;;;;15.25;20.38;97849.47;10096047;29;20138;-79
2021/03/22 12:48:53;;;;;;;5.13;1.33;;;;;;;16.03;20.39;97837.88;10110223;29;20056;-78
2021/03/22 12:54:13;;;;;;;4.50;1.30;;;;;;;16.56;19.79;97840.34;10095870;29;20048;-77
2021/03/22 12:59:42;;;;;;;7.65;0.93;;;;;;;15.70;20.03;97850.38;10102243;29;20394;-78
2021/03/22 13:05:31;;;;;;;4.53;0.98;;;;;;;15.23;20.19;97855.72;10095955;29;20040;-75
2021/03/22 13:10:51;;;;;;;3.55;1.10;;;;;;;15.06;20.04;97848.56;10122027;29;20051;-75
2021/03/22 13:16:11;;;;;;;5.32;1.23;;;;;;;13.93;20.60;97852.31;10097943;29;20564;-79
2021/03/22 13:21:33;;;;;;;8.13;2.30;;;;;;;13.26;21.61;97858.97;10096059;29;20057;-78
2021/03/22 13:26:52;;;;;;;6.35;1.52;;;;;;;12.55;22.67;97863.81;10097006;29;20044;-78
2021/03/22 13:32:12;;;;;;;5.55;1.30;;;;;;;12.29;22.41;97866.41;10083122;29;20096;-78
2021/03/22 13:37:33;;;;;;;5.03;1.02;;;;;;;12.96;22.85;97869.78;10082680;29;20046;-78
2021/03/22 13:42:53;;;;;;;4.80;0.70;;;;;;;13.55;22.21;97864.88;10096301;29;20187;-78
2021/03/22 13:48:13;;;;;;;4.82;0.70;;;;;;;13.63;22.40;97870.94;10096995;29;20052;-78
2021/03/22 13:53:34;;;;;;;4.82;1.17;;;;;;;13.53;22.59;97875.97;10104807;29;20077;-79
2021/03/22 13:58:55;;;;;;;6.45;1.05;;;;;;;13.12;22.78;97879.19;10093864;29;20078;-78
2021/03/22 14:04:16;;;;;;;8.77;1.52;;;;;;;12.21;23.61;97874.31;10079277;29;20048;-78
2021/03/22 14:09:36;;;;;;;4.78;1.23;;;;;;;11.61;23.64;97871.84;10101314;29;20052;-78
2021/03/22 14:14:58;;;;;;;9.70;1.15;;;;;;;11.48;24.51;97875.16;10082138;29;20048;-78
2021/03/22 14:20:18;;;;;;;4.25;1.15;;;;;;;11.91;24.23;97881.50;10097434;29;20437;-78
2021/03/22 14:25:39;;;;;;;5.68;1.02;;;;;;;12.14;23.90;97880.84;10126047;29;20051;-78
2021/03/22 14:31:00;;;;;;;5.45;1.25;;;;;;;11.84;24.42;97876.84;10114285;29;20096;-78
2021/03/22 14:36:22;;;;;;;6.35;1.10;;;;;;;11.32;24.89;97869.25;10128281;29;20077;-78
2021/03/22 14:41:42;;;;;;;7.00;1.48;;;;;;;10.70;26.23;97893.63;10141399;29;20056;-78
2021/03/22 14:47:03;;;;;;;4.60;0.95;;;;;;;10.40;26.31;97886.66;10112183;29;20041;-79
2021/03/22 14:52:23;;;;;;;7.88;1.73;;;;;;;10.86;26.32;97887.13;10125007;29;20500;-78
2021/03/22 14:57:43;;;;;;;4.75;1.10;;;;;;;10.97;25.80;97896.91;10128516;29;20488;-79
2021/03/22 15:03:06;;;;;;;6.22;1.20;;;;;;;10.98;25.94;97890.00;10123285;29;20056;-79
2021/03/22 15:08:25;;;;;;;3.63;1.30;;;;;;;10.68;25.73;97887.91;10127753;29;20044;-79
2021/03/22 15:13:45;;;;;;;4.80;1.33;;;;;;;10.52;26.64;97893.84;10132505;29;20071;-79
2021/03/22 15:19:05;;;;;;;5.43;0.98;;;;;;;10.39;26.51;97891.53;10144948;29;20124;-78
2021/03/22 15:24:25;;;;;;;5.88;1.20;;;;;;;10.29;27.17;97890.81;10155862;29;20070;-79
2021/03/22 15:29:44;;;;;;;5.38;1.30;;;;;;;10.30;27.30;97909.00;10143135;29;20048;-78
2021/03/22 15:35:05;;;;;;;5.05;1.50;;;;;;;10.38;27.49;97906.06;10149414;29;20045;-79
2021/03/22 15:40:25;;;;;;;6.65;1.90;;;;;;;10.17;27.95;97903.88;10143374;29;20044;-79
2021/03/22 15:45:46;;;;;;;6.95;1.20;;;;;;;9.66;28.59;97923.25;10142513;29;20052;-78
2021/03/22 15:51:07;;;;;;;8.13;1.20;;;;;;;9.40;29.29;97922.03;10131830;29;20044;-78
2021/03/22 15:56:27;;;;;;;6.13;1.33;;;;;;;9.17;29.68;97921.66;10133261;29;20064;-79
2021/03/22 16:01:47;;;;;;;8.38;1.73;;;;;;;8.81;30.08;97934.28;10112608;29;20062;-79
2021/03/22 16:07:07;;;;;;;5.32;1.55;;;;;;;8.66;29.83;97928.91;10140971;29;20067;-78
2021/03/22 16:12:26;;;;;;;6.05;1.55;;;;;;;8.56;30.21;97930.91;10129830;29;20048;-79
2021/03/22 16:17:46;;;;;;;5.95;1.42;;;;;;;8.38;31.17;97940.59;10089506;29;20124;-79
2021/03/22 16:23:07;;;;;;;8.75;1.20;;;;;;;8.22;30.95;97945.59;10643655;23;20419;-81
2021/03/22 16:28:27;;;;;;;4.60;1.17;;;;;;;8.18;31.14;97946.00;10150979;29;20054;-78
2021/03/22 16:33:46;;;;;;;6.43;1.50;;;;;;;8.01;31.45;97946.78;10131965;29;20396;-77
2021/03/22 16:39:06;;;;;;;6.75;1.60;;;;;;;7.79;32.03;97952.56;10140230;29;20088;-79
2021/03/22 16:44:26;;;;;;;9.73;2.80;;;;;;;7.69;31.91;97975.44;10139854;29;20057;-78
2021/03/22 16:49:47;;;;;;;6.88;2.58;;;;;;;7.65;32.28;97977.88;10155013;29;20048;-78
2021/03/22 16:55:08;;;;;;;7.22;2.40;;;;;;;7.64;32.36;97972.91;10164747;29;20044;-81
2021/03/22 17:00:29;;;;;;;10.65;2.53;;;;;;;7.52;32.83;97988.56;10742753;23;20040;-81
2021/03/22 17:06:00;;;;;;;6.35;1.88;;;;;;;7.44;33.32;97988.63;10308320;24;20063;-79
2021/03/22 17:11:20;;;;;;;7.47;2.22;;;;;;;7.37;32.97;97995.72;10100953;29;20396;-77
2021/03/22 17:16:39;;;;;;;7.18;2.42;;;;;;;7.37;33.40;98006.81;10098681;29;20480;-79
2021/03/22 17:22:21;;;;;;;9.45;2.40;;;;;;;7.36;34.02;98016.47;10086193;29;20068;-79
2021/03/22 17:27:44;;;;;;;7.65;2.30;;;;;;;7.28;34.08;98034.47;10139843;29;20429;-79
2021/03/22 17:33:05;;;;;;;7.45;2.67;;;;;;;7.14;34.48;98029.19;10111186;29;20045;-78
2021/03/22 17:38:25;;;;;;;8.32;2.70;;;;;;;7.06;34.96;98033.31;10098488;29;20052;-79
2021/03/22 17:43:44;;;;;;;10.07;3.05;;;;;;;6.89;35.76;98033.97;10101802;29;20052;-77
2021/03/22 17:49:05;;;;;;;8.73;3.22;;;;;;;6.65;36.41;98043.69;10110483;29;20048;-80
2021/03/22 17:54:25;;;;;;;12.98;3.78;;;;;;;6.57;36.51;98054.84;10104948;29;20045;-79
2021/03/22 17:59:44;;;;;;;10.10;3.45;;;;;;;6.46;36.93;98051.72;10085710;29;20048;-78
2021/03/22 18:05:06;;;;;;;11.60;3.88;;;;;;;6.30;37.89;98056.56;10084981;29;20083;-81
2021/03/22 18:10:28;;;;;;;10.80;3.90;;;;;;;6.11;37.90;98047.94;10110728;29;20082;-80
2021/03/22 18:15:48;;;;;;;13.30;4.47;;;;;;;5.94;39.73;98065.88;10115799;29;20032;-81
2021/03/22 18:21:09;;;;;;;14.05;4.82;;;;;;;5.72;39.36;98064.56;10098110;29;20044;-76
2021/03/22 18:26:31;;;;;;;13.23;5.10;;;;;;;5.57;41.22;98083.22;10096756;29;20480;-76
2021/03/22 18:31:52;;;;;;;14.57;5.22;;;;;;;5.49;40.92;98079.69;10109197;29;20041;-76
2021/03/22 18:37:11;;;;;;;14.00;5.72;;;;;;;5.43;42.29;98094.47;10095740;29;20044;-78
2021/03/22 18:42:31;;;;;;;12.98;5.05;;;;;;;5.39;41.20;98098.88;10099205;29;20044;-83
2021/03/22 18:47:51;;;;;;;15.13;5.85;;;;;;;5.38;42.27;98106.44;10122473;29;20049;-80
2021/03/22 18:53:11;;;;;;;19.08;7.63;;;;;;;5.36;42.67;98117.34;10130042;29;20099;-80
2021/03/22 19:04:27;;;;;;;13.18;6.40;;;;;;;5.26;43.69;98127.47;10032899;29;20053;-79
2021/03/22 19:09:51;;;;;;;18.85;7.07;;;;;;;5.27;44.87;98137.25;10020225;29;20537;-81
2021/03/22 19:15:12;;;;;;;18.05;7.85;;;;;;;5.23;46.09;98139.63;10034365;29;20558;-79
2021/03/22 19:20:34;;;;;;;19.08;8.52;;;;;;;5.18;45.80;98149.56;10034026;29;20042;-80
2021/03/22 19:25:55;;;;;;;13.50;7.32;;;;;;;5.15;45.50;98158.25;10032481;29;20054;-78
2021/03/22 19:31:19;;;;;;;13.95;6.93;;;;;;;5.14;46.18;98170.59;10032216;29;20050;-79
2021/03/22 19:36:39;;;;;;;22.35;9.93;;;;;;;5.09;46.11;98168.72;10033155;29;20042;-78
2021/03/22 19:42:00;;;;;;;22.55;11.25;;;;;;;5.05;49.18;98171.13;10019317;29;20110;-79
2021/03/22 19:47:21;;;;;;;22.63;12.07;;;;;;;4.97;48.77;98175.88;10027618;29;20054;-78
2021/03/22 19:52:41;;;;;;;19.05;10.27;;;;;;;4.85;49.04;98181.72;10019938;29;20402;-79
2021/03/22 19:58:01;;;;;;;16.40;8.88;;;;;;;4.88;47.56;98186.16;10026110;29;20045;-78
2021/03/22 20:03:22;;;;;;;17.33;8.63;;;;;;;4.88;49.21;98194.47;10025091;29;20122;-79
2021/03/22 20:08:42;;;;;;;17.88;9.60;;;;;;;4.88;48.50;98200.00;10025213;29;20513;-80
2021/03/22 20:14:06;;;;;;;18.13;8.57;;;;;;;4.86;49.11;98199.81;10025558;29;20046;-78
2021/03/22 20:19:27;;;;;;;18.10;9.15;;;;;;;4.81;49.00;98206.22;10000609;29;20448;-78
2021/03/22 20:24:46;;;;;;;20.95;9.07;;;;;;;4.78;49.19;98206.56;10038036;29;20049;-79
2021/03/22 20:30:07;;;;;;;16.67;9.10;;;;;;;4.75;49.60;98200.13;10024750;29;20406;-79
2021/03/22 20:35:28;;;;;;;20.45;10.05;;;;;;;4.76;49.31;98209.91;10037692;29;20049;-79
2021/03/22 20:40:47;;;;;;;20.10;10.13;;;;;;;4.75;49.96;98211.19;10025149;29;20046;-81
2021/03/22 20:46:08;;;;;;;14.98;8.35;;;;;;;4.68;50.67;98211.13;10024524;29;20054;-80
2021/03/22 20:51:28;;;;;;;21.73;9.52;;;;;;;4.62;49.98;98216.06;10025746;29;20052;-79
2021/03/22 20:56:49;;;;;;;21.27;9.70;;;;;;;4.59;50.67;98218.63;10023887;29;20049;-78
2021/03/22 21:02:09;;;;;;;19.10;9.77;;;;;;;4.57;51.57;98223.97;10048843;29;20516;-79
2021/03/22 21:13:51;;;;;;;14.90;9.05;;;;;;;4.56;51.16;98235.56;10532420;23;20071;-79
2021/03/22 21:19:11;;;;;;;22.17;8.60;;;;;;;4.54;51.31;98224.31;10124975;29;20424;-78
2021/03/22 21:24:31;;;;;;;18.58;8.82;;;;;;;4.49;52.33;98227.97;10111997;29;20515;-77
2021/03/22 21:29:51;;;;;;;17.95;8.65;;;;;;;4.46;51.88;98234.56;10111088;29;20052;-76
2021/03/22 21:35:13;;;;;;;17.02;9.13;;;;;;;4.43;52.31;98227.34;10111373;29;20507;-79
2021/03/22 21:40:33;;;;;;;20.38;9.82;;;;;;;4.41;51.95;98235.44;10129720;29;20400;-79
2021/03/22 21:45:53;;;;;;;15.20;9.32;;;;;;;4.37;53.33;98232.28;10127898;29;20064;-85
2021/03/22 21:51:13;;;;;;;19.40;9.43;;;;;;;4.27;52.51;98229.28;10210265;23;20112;-78
2021/03/22 21:56:33;;;;;;;19.17;9.07;;;;;;;4.21;53.90;98229.41;10085092;29;20104;-79
2021/03/22 22:01:52;;;;;;;22.88;9.98;;;;;;;4.18;52.93;98236.00;10085050;29;20473;-79
2021/03/22 22:07:12;;;;;;;20.98;9.75;;;;;;;4.23;53.41;98237.88;10034785;29;20493;-79
2021/03/22 22:12:32;;;;;;;18.52;8.50;;;;;;;4.25;53.38;98232.59;10034001;29;20079;-80
2021/03/22 22:17:51;;;;;;;15.60;7.72;;;;;;;4.24;53.79;98231.06;10056765;29;20425;-79
2021/03/22 22:23:13;;;;;;;18.83;7.70;;;;;;;4.26;54.17;98228.53;10046197;29;20489;-79
2021/03/22 22:28:33;;;;;;;20.45;8.20;;;;;;;4.32;54.20;98229.13;10033250;29;20509;-79
2021/03/22 22:33:53;;;;;;;15.80;6.97;;;;;;;4.36;53.54;98239.84;10044931;29;20057;-78
2021/03/22 22:39:12;;;;;;;15.57;7.25;;;;;;;4.30;53.44;98236.47;10054592;29;20493;-79
2021/03/22 22:44:35;;;;;;;15.15;7.22;;;;;;;4.23;54.42;98242.66;10041658;29;20046;-79
2021/03/22 22:49:55;;;;;;;17.08;6.75;;;;;;;4.17;54.06;98240.06;10042659;29;20057;-79
2021/03/22 22:55:18;;;;;;;19.15;6.82;;;;;;;4.12;54.50;98243.69;10032636;29;20052;-79
2021/03/22 23:00:40;;;;;;;14.93;6.65;;;;;;;4.06;54.44;98240.34;10057987;29;20041;-79
2021/03/22 23:06:01;;;;;;;14.25;7.30;;;;;;;4.05;54.28;98240.84;10057451;29;20482;-79
2021/03/22 23:11:28;;;;;;;17.55;6.97;;;;;;;3.97;54.98;98246.31;10049323;29;20045;-79
2021/03/22 23:16:48;;;;;;;17.25;6.93;;;;;;;3.81;54.95;98253.72;10068094;29;20046;-80
2021/03/22 23:22:07;;;;;;;17.00;6.75;;;;;;;3.74;55.30;98246.09;10055448;29;20046;-79
2021/03/22 23:27:27;;;;;;;17.30;6.68;;;;;;;3.66;55.24;98248.75;10056950;29;20454;-79
2021/03/22 23:32:48;;;;;;;16.88;6.20;;;;;;;3.61;55.77;98246.13;10076425;29;20120;-79
2021/03/22 23:38:08;;;;;;;18.42;7.32;;;;;;;3.50;55.36;98249.88;10063884;29;20092;-79
2021/03/22 23:43:28;;;;;;;17.25;7.00;;;;;;;3.41;55.68;98244.81;10064349;29;20076;-79
2021/03/22 23:48:48;;;;;;;18.17;6.53;;;;;;;3.34;56.44;98245.44;10062680;29;20061;-79
2021/03/22 23:54:08;;;;;;;15.07;6.10;;;;;;;3.26;56.73;98242.59;10063471;29;20048;-79
2021/03/22 23:59:29;;;;;;;15.32;5.80;;;;;;;3.31;56.29;98249.28;10050268;29;20049;-79
